Time;durP1;ratioP1;P1;durP2;ratioP2;P2;SDS_P1;SDS_P2;PMS_P1;PMS_P2;Temp;Humidity;BMP_temperature;BMP_pressure;BME280_temperature;BME280_humidity;BME280_pressure;Samples;Min_cycle;Max_cycle;Signal;HPM_P1;HPM_P2
2023/01/01 00:01:28;;;;;;;71.35;52.63;;;12.40;1.00;;;;;;5091725;28;20039;-78
2023/01/01 00:03:58;;;;;;;57.05;43.40;;;12.30;1.00;;;;;;5088493;28;20032;-76
2023/01/01 00:06:25;;;;;;;53.47;39.00;;;12.30;1.00;;;;;;5087527;28;20024;-78
2023/01/01 00:10:26;;;;;;;46.15;31.67;;;12.30;1.00;;;;;;5091149;28;20118;-77
2023/01/01 00:11:37;;;;;;;53.75;37.03;;;12.30;1.00;;;;;;5085500;28;20047;-76
2023/01/01 00:14:04;;;;;;;46.28;29.90;;;12.30;1.00;;;;;;5092385;28;20043;-78
2023/01/01 00:16:30;;;;;;;36.42;26.48;;;12.20;1.00;;;;;;5085591;28;20044;-77
2023/01/01 00:18:56;;;;;;;31.90;21.70;;;12.20;1.00;;;;;;5069154;28;20463;-76
2023/01/01 00:21:22;;;;;;;32.45;21.15;;;12.20;1.00;;;;;;5072856;28;20480;-76
2023/01/01 00:23:48;;;;;;;29.98;20.88;;;12.30;1.00;;;;;;5073424;28;20461;-76
2023/01/01 00:26:16;;;;;;;24.08;15.15;;;12.30;1.00;;;;;;5052842;28;20029;-76
2023/01/01 00:28:44;;;;;;;22.35;15.43;;;12.40;1.00;;;;;;5062146;28;20039;-76
2023/01/01 00:31:16;;;;;;;20.75;15.10;;;12.40;1.00;;;;;;5072630;28;20028;-76
2023/01/01 00:33:44;;;;;;;22.63;13.23;;;12.30;1.00;;;;;;5071206;28;20040;-76
2023/01/01 00:36:13;;;;;;;19.98;12.25;;;12.30;1.00;;;;;;5072301;28;20033;-76
2023/01/01 00:38:40;;;;;;;23.40;15.20;;;12.30;1.00;;;;;;5053310;28;20043;-76
2023/01/01 00:41:06;;;;;;;17.75;12.15;;;12.30;1.00;;;;;;5071918;28;20033;-76
2023/01/01 00:43:32;;;;;;;14.25;11.25;;;12.30;1.00;;;;;;5069910;28;20040;-76
2023/01/01 00:45:59;;;;;;;19.58;11.98;;;12.20;1.00;;;;;;5071759;28;20335;-76
2023/01/01 00:48:25;;;;;;;18.00;11.48;;;12.10;1.00;;;;;;5053779;28;20036;-76
2023/01/01 00:50:51;;;;;;;14.43;10.35;;;12.00;1.00;;;;;;5073054;28;20039;-75
2023/01/01 00:53:19;;;;;;;15.82;9.85;;;12.00;1.00;;;;;;5070071;28;20040;-76
2023/01/01 00:55:47;;;;;;;14.88;9.98;;;11.90;1.00;;;;;;5071927;28;20497;-76
2023/01/01 00:58:14;;;;;;;23.50;12.68;;;12.00;1.00;;;;;;5072254;28;20040;-76
2023/01/01 01:00:41;;;;;;;18.40;11.88;;;11.80;1.00;;;;;;5072819;28;20350;-76
2023/01/01 01:03:09;;;;;;;15.90;10.05;;;11.80;1.00;;;;;;5070922;28;20033;-76
2023/01/01 01:05:37;;;;;;;21.80;11.35;;;11.90;1.00;;;;;;5071346;28;20024;-78
2023/01/01 01:08:03;;;;;;;20.95;11.60;;;11.90;1.00;;;;;;5072694;28;20032;-79
2023/01/01 01:10:29;;;;;;;17.13;11.35;;;12.10;1.00;;;;;;5053472;28;20052;-77
2023/01/01 01:12:55;;;;;;;16.73;10.05;;;12.30;1.00;;;;;;5070734;28;20032;-77
2023/01/01 01:15:22;;;;;;;12.02;6.97;;;12.40;1.00;;;;;;5070669;28;20040;-76
2023/01/01 01:17:48;;;;;;;12.80;7.95;;;12.50;1.00;;;;;;5071136;28;20123;-76
2023/01/01 01:20:14;;;;;;;9.27;6.10;;;12.50;1.00;;;;;;5071754;28;20032;-76
2023/01/01 01:22:40;;;;;;;11.18;8.40;;;12.70;1.00;;;;;;5052736;28;20060;-76
2023/01/01 01:25:07;;;;;;;11.43;7.60;;;12.60;1.00;;;;;;5071413;28;20032;-76
2023/01/01 01:27:33;;;;;;;8.32;5.72;;;12.80;1.00;;;;;;5070604;28;20036;-75
2023/01/01 01:30:00;;;;;;;10.38;6.63;;;12.80;1.00;;;;;;5072239;28;20402;-75
2023/01/01 01:32:26;;;;;;;9.25;6.22;;;12.80;1.00;;;;;;5069689;28;20024;-75
2023/01/01 01:34:52;;;;;;;9.52;6.38;;;12.60;1.00;;;;;;5072178;28;20028;-75
2023/01/01 01:37:18;;;;;;;9.30;6.28;;;12.40;1.00;;;;;;5071006;28;20041;-75
2023/01/01 01:39:44;;;;;;;10.93;6.15;;;12.20;1.00;;;;;;5072090;28;20032;-74
2023/01/01 01:42:17;;;;;;;8.93;5.45;;;12.20;1.00;;;;;;5069563;28;20462;-75
2023/01/01 01:44:49;;;;;;;10.02;5.78;;;12.20;1.00;;;;;;5071824;28;20473;-75
2023/01/01 01:47:24;;;;;;;10.43;5.60;;;12.00;1.00;;;;;;5071447;28;20039;-75
2023/01/01 01:50:17;;;;;;;8.82;4.75;;;12.00;1.00;;;;;;5074857;28;20044;-74
2023/01/01 01:53:06;;;;;;;11.73;5.72;;;11.90;1.00;;;;;;5073743;28;20040;-75
2023/01/01 01:55:37;;;;;;;9.52;4.55;;;11.80;1.00;;;;;;5074590;28;20036;-74
2023/01/01 01:58:04;;;;;;;8.77;4.40;;;11.70;1.00;;;;;;5075607;28;20044;-74
2023/01/01 02:00:30;;;;;;;8.38;4.05;;;11.80;1.00;;;;;;5075718;28;20036;-75
2023/01/01 02:03:11;;;;;;;6.65;4.10;;;11.80;1.00;;;;;;5076278;28;20031;-75
2023/01/01 02:05:40;;;;;;;5.85;3.53;;;11.80;1.00;;;;;;5078587;28;20043;-74
2023/01/01 02:08:08;;;;;;;8.20;4.90;;;11.80;1.00;;;;;;5077507;28;20366;-75
2023/01/01 02:10:35;;;;;;;9.15;4.40;;;11.90;1.00;;;;;;5079112;28;20047;-75
2023/01/01 02:13:01;;;;;;;10.63;4.05;;;11.90;1.00;;;;;;5077052;28;20390;-75
2023/01/01 02:15:33;;;;;;;10.18;5.88;;;12.00;1.00;;;;;;5075230;28;20035;-75
2023/01/01 02:18:10;;;;;;;7.13;4.57;;;12.00;1.00;;;;;;5073162;28;20383;-75
2023/01/01 02:20:42;;;;;;;10.05;5.47;;;12.10;1.00;;;;;;5069003;28;20033;-75
2023/01/01 02:23:31;;;;;;;8.30;5.25;;;12.20;1.00;;;;;;5076741;28;20036;-75
2023/01/01 02:26:09;;;;;;;10.70;6.95;;;12.20;1.00;;;;;;5054131;28;20040;-75
2023/01/01 02:29:00;;;;;;;12.55;7.68;;;12.30;1.00;;;;;;5055839;28;20044;-74
2023/01/01 02:31:31;;;;;;;10.27;6.47;;;12.40;1.00;;;;;;5073383;28;20039;-74
2023/01/01 02:34:02;;;;;;;12.07;7.25;;;12.50;1.00;;;;;;5075627;28;20478;-75
2023/01/01 02:36:32;;;;;;;10.10;6.63;;;12.40;1.00;;;;;;5056717;28;20040;-75
2023/01/01 02:39:02;;;;;;;11.50;6.63;;;12.40;1.00;;;;;;5075574;28;20039;-77
2023/01/01 02:41:56;;;;;;;13.52;6.60;;;12.40;1.00;;;;;;5080266;28;20041;-78
2023/01/01 02:44:27;;;;;;;8.07;6.03;;;12.50;1.00;;;;;;5058212;28;20043;-77
2023/01/01 02:46:53;;;;;;;9.63;6.50;;;12.60;1.00;;;;;;5074712;28;20047;-75
2023/01/01 02:49:19;;;;;;;10.60;6.40;;;12.60;1.00;;;;;;5072569;28;20377;-75
2023/01/01 02:52:01;;;;;;;12.43;7.43;;;12.50;1.00;;;;;;5073624;28;20035;-74
2023/01/01 02:55:00;;;;;;;10.15;6.70;;;12.40;1.00;;;;;;5073773;28;20036;-75
2023/01/01 02:57:42;;;;;;;10.82;6.30;;;12.50;1.00;;;;;;5067862;28;20055;-75
2023/01/01 03:00:34;;;;;;;10.73;6.63;;;12.40;1.00;;;;;;5073010;28;20037;-74
2023/01/01 03:03:27;;;;;;;8.32;6.28;;;12.30;1.00;;;;;;5056449;28;20047;-75
2023/01/01 03:06:22;;;;;;;11.15;6.68;;;12.20;1.00;;;;;;5074120;28;20024;-75
2023/01/01 03:08:52;;;;;;;11.35;6.22;;;12.10;1.00;;;;;;5057689;28;20036;-78
2023/01/01 03:11:23;;;;;;;12.80;8.50;;;12.00;1.00;;;;;;5073067;28;20044;-76
2023/01/01 03:14:21;;;;;;;;;;;12.10;1.00;;;;;;5056426;28;20043;-76
2023/01/01 03:16:54;;;;;;;11.82;5.63;;;12.10;1.00;;;;;;5028746;28;20376;-76
2023/01/01 03:19:24;;;;;;;8.85;5.70;;;12.00;1.00;;;;;;5071758;28;20044;-75
2023/01/01 03:22:02;;;;;;;8.05;5.72;;;12.00;1.00;;;;;;5073122;28;20051;-76
2023/01/01 03:24:40;;;;;;;10.23;6.97;;;11.90;1.00;;;;;;5067080;28;20055;-76
2023/01/01 03:27:27;;;;;;;7.80;5.82;;;12.00;1.00;;;;;;5073782;28;20029;-76
2023/01/01 03:29:56;;;;;;;8.02;5.20;;;12.10;1.00;;;;;;5071974;28;20041;-75
2023/01/01 03:35:21;;;;;;;8.68;6.45;;;12.10;1.00;;;;;;5073441;28;20477;-75
2023/01/01 03:37:50;;;;;;;10.38;6.35;;;12.20;1.00;;;;;;5073315;28;20067;-76
2023/01/01 03:40:19;;;;;;;7.72;5.80;;;12.30;1.00;;;;;;5072221;28;20508;-75
2023/01/01 03:42:58;;;;;;;9.68;5.72;;;12.20;1.00;;;;;;5072129;28;20041;-76
2023/01/01 03:45:38;;;;;;;10.38;6.38;;;12.20;1.00;;;;;;5072610;28;20458;-75
2023/01/01 03:48:05;;;;;;;10.25;5.53;;;12.20;1.00;;;;;;5072927;28;20377;-75
2023/01/01 03:50:48;;;;;;;10.30;6.07;;;12.20;1.00;;;;;;5070410;28;20036;-75
2023/01/01 03:53:17;;;;;;;8.15;5.72;;;12.30;1.00;;;;;;5072666;28;20036;-75
2023/01/01 03:55:48;;;;;;;10.23;6.43;;;12.20;1.00;;;;;;5071882;28;20039;-76
2023/01/01 03:58:34;;;;;;;10.77;6.75;;;12.10;1.00;;;;;;5072866;28;20039;-76
2023/01/01 04:01:07;;;;;;;14.93;8.80;;;12.20;1.00;;;;;;5056777;28;20043;-76
2023/01/01 04:03:36;;;;;;;11.65;5.72;;;12.30;1.00;;;;;;5074973;28;20041;-75
2023/01/01 04:06:03;;;;;;;10.93;5.97;;;12.30;1.00;;;;;;5076988;28;20036;-74
2023/01/01 04:08:33;;;;;;;12.70;6.18;;;12.40;1.00;;;;;;5076313;28;20385;-75
2023/01/01 04:12:00;;;;;;;8.20;5.50;;;12.40;1.00;;;;;;5072851;28;20045;-75
2023/01/01 04:13:49;;;;;;;9.35;5.85;;;12.40;1.00;;;;;;5072409;28;20032;-76
2023/01/01 04:16:15;;;;;;;10.70;7.32;;;12.50;1.00;;;;;;5072698;28;20041;-75
2023/01/01 04:18:41;;;;;;;13.73;7.97;;;12.40;1.00;;;;;;5053656;28;20470;-76
2023/01/01 04:21:07;;;;;;;10.00;6.60;;;12.20;1.00;;;;;;5071191;28;20366;-75
2023/01/01 04:23:33;;;;;;;14.90;9.00;;;12.10;1.00;;;;;;5071504;28;20516;-76
2023/01/01 04:26:00;;;;;;;13.90;7.53;;;12.00;1.00;;;;;;5072428;28;20041;-76
2023/01/01 04:28:26;;;;;;;11.80;7.30;;;11.80;1.00;;;;;;5053824;28;20047;-78
2023/01/01 04:30:52;;;;;;;14.45;7.90;;;11.70;1.00;;;;;;5070693;28;20048;-76
2023/01/01 04:33:18;;;;;;;11.18;6.78;;;11.60;1.00;;;;;;5071940;28;20081;-76
2023/01/01 04:35:44;;;;;;;10.15;6.28;;;11.50;1.00;;;;;;5053542;28;20036;-76
2023/01/01 04:38:13;;;;;;;9.43;5.45;;;11.50;1.00;;;;;;5072014;28;20043;-76
2023/01/01 04:40:39;;;;;;;10.25;5.07;;;11.50;1.00;;;;;;5069937;28;20037;-76
2023/01/01 04:43:06;;;;;;;11.48;5.10;;;11.60;1.00;;;;;;5072273;28;20465;-76
2023/01/01 04:45:33;;;;;;;11.73;5.13;;;11.70;1.00;;;;;;5071112;28;20131;-76
2023/01/01 04:48:04;;;;;;;7.65;4.85;;;11.70;1.00;;;;;;5072355;28;20069;-76
2023/01/01 04:50:30;;;;;;;9.45;4.75;;;11.70;1.00;;;;;;5070261;28;20043;-76
2023/01/01 04:52:57;;;;;;;6.18;3.70;;;11.80;1.00;;;;;;5071758;28;20024;-76
2023/01/01 04:55:24;;;;;;;7.25;4.50;;;11.80;1.00;;;;;;5072082;28;20040;-76
2023/01/01 04:57:50;;;;;;;7.10;4.38;;;11.90;1.00;;;;;;5071372;28;20036;-75
2023/01/01 05:00:16;;;;;;;8.63;4.95;;;11.90;1.00;;;;;;5070568;28;20051;-75
2023/01/01 05:02:42;;;;;;;8.40;4.18;;;11.90;1.00;;;;;;5064686;28;20033;-75
2023/01/01 05:05:08;;;;;;;9.75;4.18;;;11.80;1.00;;;;;;5071937;28;20032;-76
2023/01/01 05:07:35;;;;;;;9.35;4.57;;;11.80;1.00;;;;;;5072206;28;20033;-76
2023/01/01 05:10:01;;;;;;;6.75;4.60;;;11.80;1.00;;;;;;5071036;28;20474;-76
2023/01/01 05:12:28;;;;;;;5.55;4.07;;;11.90;1.00;;;;;;5072223;28;20024;-76
2023/01/01 05:14:55;;;;;;;7.05;4.50;;;12.00;1.00;;;;;;5071543;28;20031;-76
2023/01/01 05:17:21;;;;;;;9.40;4.78;;;12.00;1.00;;;;;;5075703;28;20051;-76
2023/01/01 05:19:47;;;;;;;8.85;4.15;;;11.90;1.00;;;;;;5088640;28;20043;-75
2023/01/01 05:22:13;;;;;;;8.00;3.83;;;11.90;1.00;;;;;;5090877;28;20420;-75
2023/01/01 05:24:39;;;;;;;9.30;4.50;;;11.80;1.00;;;;;;5091574;28;20047;-75
2023/01/01 05:27:05;;;;;;;8.15;4.22;;;11.80;1.00;;;;;;5094685;28;20028;-76
2023/01/01 05:29:31;;;;;;;8.65;4.68;;;11.70;1.00;;;;;;5092273;28;20040;-75
2023/01/01 05:32:00;;;;;;;7.18;4.68;;;11.70;1.00;;;;;;5094736;28;20465;-75
2023/01/01 05:34:27;;;;;;;7.72;4.07;;;11.60;1.00;;;;;;5093853;28;20028;-75
2023/01/01 05:36:53;;;;;;;8.07;4.40;;;11.60;1.00;;;;;;5093876;28;20028;-76
2023/01/01 05:39:19;;;;;;;8.00;4.30;;;11.60;1.00;;;;;;5092921;28;20385;-76
2023/01/01 05:41:45;;;;;;;8.65;5.85;;;11.60;1.00;;;;;;5093548;28;20028;-75
2023/01/01 05:44:11;;;;;;;11.50;6.03;;;11.60;1.00;;;;;;5094414;28;20384;-76
2023/01/01 05:46:38;;;;;;;13.05;6.40;;;11.40;1.00;;;;;;5093747;28;20038;-76
2023/01/01 05:49:04;;;;;;;9.75;6.28;;;11.30;1.00;;;;;;5091904;28;20039;-76
2023/01/01 05:51:30;;;;;;;9.57;5.55;;;11.20;1.00;;;;;;5093214;28;20051;-75
2023/01/01 05:53:57;;;;;;;11.38;7.15;;;11.00;1.00;;;;;;5093954;28;20035;-76
2023/01/01 05:56:24;;;;;;;11.52;7.25;;;10.80;1.00;;;;;;5094346;28;20135;-75
2023/01/01 05:58:51;;;;;;;10.00;5.85;;;10.70;1.00;;;;;;5090761;28;20114;-76
2023/01/01 06:01:23;;;;;;;11.57;6.55;;;10.60;1.00;;;;;;5093827;28;20024;-76
2023/01/01 06:03:50;;;;;;;9.70;5.93;;;10.40;1.00;;;;;;5093276;28;20039;-75
2023/01/01 06:06:19;;;;;;;11.98;5.88;;;10.30;1.00;;;;;;5093947;28;20024;-76
2023/01/01 06:08:57;;;;;;;8.93;5.47;;;10.20;1.00;;;;;;5092807;28;20035;-76
2023/01/01 06:11:23;;;;;;;12.35;6.93;;;10.10;1.00;;;;;;5094243;28;20047;-76
2023/01/01 06:13:54;;;;;;;10.98;5.95;;;10.10;1.00;;;;;;5093336;28;20041;-75
2023/01/01 06:16:21;;;;;;;9.67;5.87;;;10.10;1.00;;;;;;5045837;28;1070163;-75
2023/01/01 06:18:47;;;;;;;10.10;5.25;;;10.00;1.00;;;;;;5073045;28;20279;-75
2023/01/01 06:21:16;;;;;;;11.68;5.65;;;10.00;1.00;;;;;;5067456;28;20024;-75
2023/01/01 06:23:43;;;;;;;8.93;5.25;;;10.00;1.00;;;;;;5067329;28;20033;-76
2023/01/01 06:26:15;;;;;;;7.88;4.20;;;10.10;1.00;;;;;;5074392;28;20036;-76
2023/01/01 06:28:43;;;;;;;6.05;3.60;;;10.20;1.00;;;;;;5066558;28;20465;-75
2023/01/01 06:31:11;;;;;;;8.98;4.18;;;10.40;1.00;;;;;;5074033;28;20041;-76
2023/01/01 06:33:38;;;;;;;6.57;3.33;;;10.40;1.00;;;;;;5073501;28;20029;-75
2023/01/01 06:36:07;;;;;;;6.95;2.78;;;10.50;1.00;;;;;;5074140;28;20040;-76
2023/01/01 06:38:36;;;;;;;5.82;3.03;;;10.50;1.00;;;;;;5073430;28;20036;-76
2023/01/01 06:41:15;;;;;;;5.05;3.17;;;10.70;1.00;;;;;;5073603;28;20036;-76
2023/01/01 06:43:42;;;;;;;5.40;2.65;;;10.70;1.00;;;;;;5073809;28;20033;-76
2023/01/01 06:46:19;;;;;;;5.32;2.13;;;10.80;1.00;;;;;;5074221;28;20029;-75
2023/01/01 06:48:47;;;;;;;7.60;2.40;;;11.10;1.00;;;;;;5071968;28;20524;-76
2023/01/01 06:51:19;;;;;;;5.97;2.38;;;11.20;1.00;;;;;;5073990;28;20367;-75
2023/01/01 06:53:47;;;;;;;6.32;2.20;;;11.40;1.00;;;;;;5073520;28;20040;-75
2023/01/01 06:56:13;;;;;;;5.65;2.58;;;11.50;1.00;;;;;;5074006;28;20041;-74
2023/01/01 06:58:39;;;;;;;6.18;2.30;;;11.70;1.00;;;;;;5072625;28;20098;-74
2023/01/01 07:01:11;;;;;;;5.22;2.50;;;11.70;1.00;;;;;;5073641;28;20035;-74
2023/01/01 07:03:38;;;;;;;3.78;2.33;;;11.70;1.00;;;;;;5073079;28;20470;-74
2023/01/01 07:06:05;;;;;;;5.50;3.35;;;11.70;1.00;;;;;;5073993;28;20069;-76
2023/01/01 07:08:32;;;;;;;4.13;2.38;;;11.70;1.00;;;;;;5073156;28;20433;-77
2023/01/01 07:10:58;;;;;;;5.18;2.22;;;11.60;1.00;;;;;;5072613;28;20040;-74
2023/01/01 07:13:25;;;;;;;7.22;2.35;;;11.60;1.00;;;;;;5073522;28;20028;-75
2023/01/01 07:15:52;;;;;;;5.18;2.13;;;11.60;1.00;;;;;;5072882;28;20029;-74
2023/01/01 07:18:19;;;;;;;5.97;2.97;;;11.70;1.00;;;;;;5073404;28;20040;-74
2023/01/01 07:20:57;;;;;;;5.53;2.28;;;11.90;1.00;;;;;;5065062;28;20040;-74
2023/01/01 07:23:24;;;;;;;4.80;2.00;;;11.90;1.00;;;;;;5055941;28;20024;-77
2023/01/01 07:25:52;;;;;;;8.10;1.80;;;11.90;1.00;;;;;;5072535;28;20527;-77
2023/01/01 07:28:18;;;;;;;5.57;2.70;;;11.90;1.00;;;;;;5073176;28;20039;-76
2023/01/01 07:30:45;;;;;;;3.35;1.80;;;11.90;99.90;;;;;;5071852;28;20028;-77
2023/01/01 07:33:14;;;;;;;6.38;2.17;;;12.00;99.90;;;;;;5073555;28;20051;-77
2023/01/01 07:35:40;;;;;;;8.48;2.53;;;12.10;99.90;;;;;;5072690;28;20039;-80
2023/01/01 07:38:07;;;;;;;6.18;1.70;;;12.20;99.90;;;;;;5066716;28;20389;-77
2023/01/01 07:40:33;;;;;;;6.93;2.25;;;12.30;99.90;;;;;;5053685;28;20052;-76
2023/01/01 07:42:59;;;;;;;5.55;2.08;;;12.30;99.90;;;;;;5073183;28;20037;-76
2023/01/01 07:45:25;;;;;;;6.45;2.00;;;12.30;99.90;;;;;;5072879;28;20029;-76
2023/01/01 07:47:54;;;;;;;4.93;2.22;;;12.30;99.90;;;;;;5071762;28;20051;-76
2023/01/01 07:50:22;;;;;;;7.40;2.42;;;12.40;99.90;;;;;;5071893;28;20480;-76
2023/01/01 07:52:48;;;;;;;6.53;2.15;;;12.50;99.90;;;;;;5054364;28;20047;-76
2023/01/01 07:55:16;;;;;;;5.65;2.05;;;12.60;99.90;;;;;;5073774;28;20032;-76
2023/01/01 07:57:43;;;;;;;4.90;1.65;;;12.60;99.90;;;;;;5072784;28;20374;-76
2023/01/01 08:00:11;;;;;;;6.93;2.22;;;12.50;99.90;;;;;;5071885;28;20468;-76
2023/01/01 08:02:43;;;;;;;6.10;2.25;;;12.70;99.90;;;;;;5054589;28;20036;-77
2023/01/01 08:05:09;;;;;;;10.65;2.28;;;12.80;99.90;;;;;;5073161;28;20505;-76
2023/01/01 08:07:35;;;;;;;6.00;1.77;;;12.90;99.90;;;;;;5072322;28;20382;-76
2023/01/01 08:10:03;;;;;;;4.50;1.67;;;12.90;99.90;;;;;;5071286;28;20044;-76
2023/01/01 08:12:29;;;;;;;7.10;1.85;;;12.90;99.90;;;;;;5072831;28;20466;-76
2023/01/01 08:14:55;;;;;;;4.43;1.75;;;13.00;99.90;;;;;;5071500;28;20023;-76
2023/01/01 08:17:21;;;;;;;4.65;1.65;;;13.10;99.90;;;;;;5072949;28;20041;-76
2023/01/01 08:19:49;;;;;;;4.78;1.48;;;13.20;99.90;;;;;;5070716;28;20029;-76
2023/01/01 08:22:15;;;;;;;5.72;2.05;;;13.20;99.90;;;;;;5072817;28;20028;-77
2023/01/01 08:24:41;;;;;;;5.35;1.42;;;13.30;99.90;;;;;;5074089;28;20025;-76
2023/01/01 08:27:12;;;;;;;4.57;1.80;;;13.30;99.90;;;;;;5076251;28;20035;-74
2023/01/01 08:29:38;;;;;;;9.50;1.88;;;13.30;99.90;;;;;;5071264;28;20043;-75
2023/01/01 08:32:05;;;;;;;6.40;1.67;;;13.40;99.90;;;;;;5076321;28;20033;-75
2023/01/01 08:34:31;;;;;;;4.28;1.75;;;13.50;99.90;;;;;;5075689;28;20029;-75
2023/01/01 08:36:58;;;;;;;5.60;1.50;;;13.50;99.90;;;;;;5072149;28;20656;-74
2023/01/01 08:39:25;;;;;;;5.82;1.75;;;13.60;99.90;;;;;;5070806;28;20044;-75
2023/01/01 08:41:51;;;;;;;4.10;1.48;;;13.60;99.90;;;;;;5071394;28;20040;-75
2023/01/01 08:44:18;;;;;;;2.65;1.33;;;13.70;99.90;;;;;;5072356;28;20025;-75
2023/01/01 08:46:44;;;;;;;3.72;1.73;;;13.80;99.90;;;;;;5071347;28;20032;-75
2023/01/01 08:49:10;;;;;;;6.00;1.75;;;13.90;99.90;;;;;;5070337;28;20032;-74
2023/01/01 08:51:36;;;;;;;5.57;1.63;;;13.90;99.90;;;;;;5071603;28;20051;-74
2023/01/01 08:54:03;;;;;;;7.45;2.03;;;14.00;99.90;;;;;;5072119;28;20025;-74
2023/01/01 08:56:29;;;;;;;4.53;2.05;;;14.00;99.90;;;;;;5053995;28;20024;-74
2023/01/01 08:58:55;;;;;;;4.57;1.55;;;14.20;99.90;;;;;;5069584;28;20037;-75
2023/01/01 09:01:21;;;;;;;7.47;2.22;;;14.30;99.90;;;;;;5072096;28;20358;-74
2023/01/01 09:03:48;;;;;;;6.10;1.65;;;14.30;99.90;;;;;;5071340;28;20051;-75
2023/01/01 09:06:14;;;;;;;3.13;1.33;;;14.40;99.90;;;;;;5072034;28;20051;-75
2023/01/01 09:08:40;;;;;;;4.85;2.05;;;14.40;99.90;;;;;;5051588;28;20040;-73
2023/01/01 09:11:06;;;;;;;2.80;1.38;;;14.40;99.90;;;;;;5071993;28;20481;-74
2023/01/01 09:13:33;;;;;;;5.45;1.40;;;14.50;99.90;;;;;;5066843;28;20039;-75
2023/01/01 09:15:59;;;;;;;3.83;1.80;;;14.50;99.90;;;;;;5070083;28;20405;-75
2023/01/01 09:18:25;;;;;;;4.72;1.60;;;14.50;99.90;;;;;;5071384;28;20040;-75
2023/01/01 09:20:51;;;;;;;4.32;1.70;;;14.50;99.90;;;;;;5070653;28;20037;-75
2023/01/01 09:23:17;;;;;;;5.38;1.60;;;14.50;99.90;;;;;;5071466;28;20043;-75
2023/01/01 09:25:43;;;;;;;8.30;1.80;;;14.60;99.90;;;;;;5070092;28;20044;-74
2023/01/01 09:28:12;;;;;;;6.65;1.48;;;14.70;99.90;;;;;;5070102;28;20056;-74
2023/01/01 09:30:38;;;;;;;2.85;1.50;;;14.80;99.90;;;;;;5070221;28;20032;-75
2023/01/01 09:33:05;;;;;;;5.55;1.77;;;14.90;99.90;;;;;;5071475;28;20036;-75
2023/01/01 09:35:32;;;;;;;6.25;1.75;;;14.90;99.90;;;;;;5072195;28;20028;-76
2023/01/01 09:37:58;;;;;;;5.38;1.50;;;15.00;99.90;;;;;;5070254;28;20024;-77
2023/01/01 09:40:43;;;;;;;7.30;2.58;;;15.00;99.90;;;;;;5069408;28;20469;-76
2023/01/01 09:43:28;;;;;;;5.85;1.77;;;15.10;99.90;;;;;;5071179;28;20036;-75
2023/01/01 09:46:06;;;;;;;5.60;1.55;;;15.20;99.90;;;;;;5069961;28;20045;-76
2023/01/01 09:48:36;;;;;;;6.10;1.60;;;15.20;99.90;;;;;;5052315;28;20039;-76
2023/01/01 09:51:06;;;;;;;5.22;2.10;;;15.30;99.90;;;;;;5052677;28;20037;-77
2023/01/01 09:53:49;;;;;;;8.98;2.20;;;15.40;99.90;;;;;;5071278;28;20043;-76
2023/01/01 09:56:24;;;;;;;4.30;1.50;;;15.40;99.90;;;;;;5071918;28;20032;-76
2023/01/01 09:58:50;;;;;;;7.88;2.10;;;15.40;99.90;;;;;;5068990;28;20041;-76
2023/01/01 10:01:32;;;;;;;5.45;1.92;;;15.50;99.90;;;;;;5071219;28;20024;-76
2023/01/01 10:04:26;;;;;;;4.72;1.88;;;15.50;99.90;;;;;;5070857;28;20036;-76
2023/01/01 10:07:05;;;;;;;6.53;1.40;;;15.50;99.90;;;;;;5070511;28;20039;-76
2023/01/01 10:10:01;;;;;;;5.95;1.55;;;15.50;99.90;;;;;;5053391;28;20044;-76
2023/01/01 10:13:09;;;;;;;4.15;1.35;;;15.50;99.90;;;;;;5057150;28;20052;-75
2023/01/01 10:15:55;;;;;;;6.53;1.90;;;15.60;99.90;;;;;;5053376;28;20504;-75
2023/01/01 10:18:29;;;;;;;2.92;1.40;;;15.50;99.90;;;;;;5074032;28;20506;-75
2023/01/01 10:21:11;;;;;;;5.07;1.52;;;15.50;99.90;;;;;;5074465;28;20036;-75
2023/01/01 10:23:47;;;;;;;3.20;1.55;;;15.50;99.90;;;;;;5070174;28;20036;-75
2023/01/01 10:26:20;;;;;;;4.13;2.03;;;15.50;99.90;;;;;;5056777;28;20028;-75
2023/01/01 10:28:55;;;;;;;4.30;1.30;;;15.50;99.90;;;;;;5072551;28;20028;-75
2023/01/01 10:31:46;;;;;;;5.43;2.10;;;15.50;99.90;;;;;;5079868;28;20387;-75
2023/01/01 10:34:18;;;;;;;;;;;15.50;99.90;;;;;;5068829;28;20032;-75
2023/01/01 10:36:44;;;;;;;7.25;1.80;;;15.50;99.90;;;;;;5056180;28;19909;-75
2023/01/01 10:39:19;;;;;;;9.63;3.25;;;15.70;99.90;;;;;;5066900;28;20044;-75
2023/01/01 10:41:46;;;;;;;5.05;1.80;;;15.80;99.90;;;;;;5075398;28;20028;-76
2023/01/01 10:44:16;;;;;;;5.28;1.95;;;15.90;99.90;;;;;;5074434;28;20043;-75
2023/01/01 10:46:51;;;;;;;6.53;2.47;;;16.00;99.90;;;;;;5055334;28;20051;-76
2023/01/01 10:49:17;;;;;;;9.25;2.00;;;16.00;99.90;;;;;;5072678;28;20036;-79
2023/01/01 10:51:49;;;;;;;9.05;2.15;;;16.10;99.90;;;;;;5073281;28;20040;-75
2023/01/01 10:54:35;;;;;;;7.93;2.28;;;16.30;99.90;;;;;;5074098;28;20036;-76
2023/01/01 10:57:33;;;;;;;4.18;1.80;;;16.50;99.90;;;;;;5073433;28;20036;-76
2023/01/01 11:00:27;;;;;;;7.53;1.70;;;16.60;99.90;;;;;;5061585;28;20527;-74
2023/01/01 11:03:19;;;;;;;10.65;2.88;;;16.60;99.90;;;;;;5054576;28;20040;-77
2023/01/01 11:06:16;;;;;;;3.72;1.33;;;16.60;99.90;;;;;;5068285;28;20044;-76
2023/01/01 11:08:48;;;;;;;3.78;1.38;;;16.60;99.90;;;;;;5071819;28;20032;-77
2023/01/01 11:11:36;;;;;;;6.07;1.30;;;16.50;99.90;;;;;;5073592;28;20052;-78
2023/01/01 11:14:04;;;;;;;6.70;2.20;;;16.40;99.90;;;;;;5073039;28;20032;-78
2023/01/01 11:16:31;;;;;;;6.88;1.83;;;16.40;99.90;;;;;;5073928;28;20057;-78
2023/01/01 11:19:06;;;;;;;4.30;1.65;;;16.30;99.90;;;;;;5071787;28;20040;-74
2023/01/01 11:21:33;;;;;;;5.07;1.70;;;16.30;99.90;;;;;;5072195;28;20039;-74
2023/01/01 11:24:30;;;;;;;5.30;1.70;;;16.30;99.90;;;;;;5066119;28;20032;-74
2023/01/01 11:27:19;;;;;;;6.53;2.50;;;16.40;99.90;;;;;;5050116;28;20043;-74
2023/01/01 11:29:46;;;;;;;11.93;3.58;;;16.30;99.90;;;;;;5064684;28;20397;-74
2023/01/01 11:32:33;;;;;;;8.48;2.20;;;16.30;99.90;;;;;;5064576;28;20029;-74
2023/01/01 11:35:05;;;;;;;5.75;2.67;;;16.20;99.90;;;;;;5065880;28;20036;-76
2023/01/01 11:37:37;;;;;;;5.80;2.25;;;16.10;99.90;;;;;;5066671;28;20044;-76
2023/01/01 11:40:13;;;;;;;3.45;1.38;;;16.00;99.90;;;;;;5065091;28;20107;-76
2023/01/01 11:42:55;;;;;;;14.60;3.22;;;16.00;99.90;;;;;;5064975;28;20035;-75
2023/01/01 11:45:30;;;;;;;7.68;1.98;;;16.00;99.90;;;;;;5064442;28;20028;-75
2023/01/01 11:48:02;;;;;;;4.10;1.80;;;16.00;99.90;;;;;;5061699;28;20033;-75
2023/01/01 11:50:32;;;;;;;6.32;1.80;;;16.00;99.90;;;;;;5063980;28;20393;-75
2023/01/01 11:53:23;;;;;;;7.85;2.67;;;16.00;99.90;;;;;;5062894;28;20037;-75
2023/01/01 11:56:01;;;;;;;5.32;1.85;;;16.00;99.90;;;;;;5062175;28;20028;-75
2023/01/01 11:58:39;;;;;;;5.97;2.08;;;16.00;99.90;;;;;;5061897;28;20021;-75
2023/01/01 12:01:12;;;;;;;4.80;1.80;;;16.00;99.90;;;;;;5048201;28;20033;-75
2023/01/01 12:03:50;;;;;;;5.18;2.08;;;16.00;99.90;;;;;;5046321;28;20033;-75
2023/01/01 12:06:27;;;;;;;7.85;2.28;;;16.00;99.90;;;;;;5062328;28;20037;-75
2023/01/01 12:09:05;;;;;;;7.55;2.20;;;15.90;99.90;;;;;;5060643;28;20028;-75
2023/01/01 12:11:43;;;;;;;4.72;1.90;;;16.00;99.90;;;;;;5064286;28;20044;-75
2023/01/01 12:14:32;;;;;;;3.78;1.38;;;16.00;99.90;;;;;;5048289;28;20052;-75
2023/01/01 12:17:23;;;;;;;9.77;1.92;;;16.00;99.90;;;;;;5071638;28;20052;-76
2023/01/01 12:20:01;;;;;;;;;;;16.10;99.90;;;;;;5070824;28;20028;-77
2023/01/01 12:22:27;;;;;;;5.13;1.83;;;16.10;99.90;;;;;;5047963;28;19908;-77
2023/01/01 12:24:55;;;;;;;3.97;1.85;;;16.10;99.90;;;;;;5071781;28;20047;-75
2023/01/01 12:27:59;;;;;;;6.25;1.95;;;16.00;99.90;;;;;;5054582;28;20036;-82
2023/01/01 12:30:56;;;;;;;4.50;2.15;;;15.90;99.90;;;;;;5072832;28;20040;-84
2023/01/01 12:33:40;;;;;;;4.00;1.80;;;15.80;99.90;;;;;;5065375;28;20478;-84
2023/01/01 12:36:18;;;;;;;3.65;1.88;;;15.70;99.90;;;;;;5054634;28;20041;-79
2023/01/01 12:38:50;;;;;;;7.32;2.60;;;15.70;99.90;;;;;;5071592;28;20123;-79
2023/01/01 12:41:39;;;;;;;8.45;2.15;;;15.60;99.90;;;;;;5069150;28;20040;-79
2023/01/01 12:44:05;;;;;;;8.77;2.10;;;15.50;99.90;;;;;;5058950;28;20029;-79
2023/01/01 12:46:51;;;;;;;5.35;2.20;;;15.50;99.90;;;;;;5066512;28;20032;-79
2023/01/01 12:49:38;;;;;;;5.57;2.40;;;15.40;99.90;;;;;;5082023;28;20028;-80
2023/01/01 12:52:45;;;;;;;4.30;2.00;;;15.40;99.90;;;;;;5066720;28;20036;-79
2023/01/01 12:55:41;;;;;;;3.92;1.73;;;15.40;99.90;;;;;;5037847;28;20036;-78
2023/01/01 12:58:17;;;;;;;4.40;2.22;;;15.30;99.90;;;;;;5072924;28;20024;-79
2023/01/01 13:00:59;;;;;;;5.53;1.80;;;15.30;99.90;;;;;;5064062;28;20037;-79
2023/01/01 13:03:33;;;;;;;6.15;2.70;;;15.30;99.90;;;;;;5068771;28;20031;-79
2023/01/01 13:06:00;;;;;;;6.32;2.22;;;15.30;99.90;;;;;;5065429;28;20033;-79
2023/01/01 13:08:26;;;;;;;4.35;2.03;;;15.30;99.90;;;;;;5070240;28;20103;-83
2023/01/01 13:10:56;;;;;;;9.80;2.50;;;15.30;99.90;;;;;;5039762;28;20048;-81
2023/01/01 13:13:22;;;;;;;9.55;2.17;;;15.30;99.90;;;;;;5055935;28;20048;-83
2023/01/01 13:15:54;;;;;;;5.45;2.35;;;15.30;99.90;;;;;;5040480;28;20413;-79
2023/01/01 13:18:48;;;;;;;7.47;3.88;;;15.30;99.90;;;;;;5050182;28;20032;-78